createdAt,value
2023-01-05T00:01:19.551Z,97200.97
2023-01-05T00:03:46.266Z,97211.72
2023-01-05T00:06:14.079Z,97208.53
2023-01-05T00:08:40.894Z,97209.78
2023-01-05T00:11:33.539Z,97211.88
2023-01-05T00:14:19.161Z,97197.56
2023-01-05T00:17:04.701Z,97182.13
2023-01-05T00:19:49.893Z,97194.63
2023-01-05T00:22:38.785Z,97189.13
2023-01-05T00:25:12.449Z,97172.59
2023-01-05T00:27:43.550Z,97160.47
2023-01-05T00:30:11.585Z,97153.41
2023-01-05T00:32:38.216Z,97151.84
2023-01-05T00:35:05.058Z,97137.72
2023-01-05T00:37:32.418Z,97138.41
2023-01-05T00:39:59.069Z,97122.41
2023-01-05T00:42:26.568Z,97118.13
2023-01-05T00:44:53.449Z,97121.09
2023-01-05T00:47:20.069Z,97105.31
2023-01-05T00:49:46.725Z,97109.34
2023-01-05T00:52:13.358Z,97095.63
2023-01-05T00:54:39.999Z,97098.91
2023-01-05T00:57:07.501Z,97093.19
2023-01-05T00:59:35.902Z,97081.59
2023-01-05T01:02:02.701Z,97079.84
2023-01-05T01:04:31.599Z,97060.44
2023-01-05T01:06:58.237Z,97050.94
2023-01-05T01:09:24.906Z,97031.03
2023-01-05T01:11:55.831Z,97015.94
2023-01-05T01:14:22.476Z,97005.69
2023-01-05T01:16:49.516Z,96994.25
2023-01-05T01:19:17.872Z,96999.56
2023-01-05T01:21:44.543Z,96996.38
2023-01-05T01:24:25.453Z,96979.06
2023-01-05T01:26:52.227Z,97013.44
2023-01-05T01:29:18.895Z,97007.66
2023-01-05T01:31:47.300Z,97012.38
2023-01-05T01:34:13.971Z,97007.53
2023-01-05T01:36:42.126Z,97018.25
2023-01-05T01:39:09.384Z,97031.09
2023-01-05T01:41:38.130Z,97011.81
2023-01-05T01:44:43.654Z,97004.78
2023-01-05T01:47:13.213Z,96994.94
2023-01-05T01:49:39.837Z,96986.38
2023-01-05T01:52:06.416Z,96978.56
2023-01-05T01:54:33.049Z,96971.22
2023-01-05T01:57:01.775Z,96962.47
2023-01-05T01:59:28.280Z,96962.50
2023-01-05T02:01:55.067Z,96956.66
2023-01-05T02:04:21.699Z,96945.75
2023-01-05T02:06:48.946Z,96957.91
2023-01-05T02:09:15.413Z,96955.38
2023-01-05T02:11:41.843Z,96953.59
2023-01-05T02:14:17.514Z,96948.88
2023-01-05T02:16:57.647Z,96931.97
2023-01-05T02:19:43.303Z,96937.75
2023-01-05T02:22:18.853Z,96932.94
2023-01-05T02:25:04.243Z,96940.72
2023-01-05T02:27:31.291Z,96928.91
2023-01-05T02:29:58.056Z,96932.03
2023-01-05T02:32:28.857Z,96920.97
2023-01-05T02:35:13.671Z,96916.44
2023-01-05T02:37:48.327Z,96920.06
2023-01-05T02:40:14.970Z,96931.19
2023-01-05T02:42:41.446Z,96938.22
2023-01-05T02:45:08.482Z,96937.94
2023-01-05T02:47:41.655Z,96949.81
2023-01-05T02:50:09.437Z,96953.00
2023-01-05T02:52:41.546Z,96961.22
2023-01-05T02:55:09.500Z,96968.31
2023-01-05T02:57:47.461Z,96972.75
2023-01-05T03:00:18.563Z,96967.75
2023-01-05T03:02:45.178Z,96976.00
2023-01-05T03:05:13.658Z,96983.19
2023-01-05T03:07:40.651Z,96986.88
2023-01-05T03:10:29.226Z,96983.06
2023-01-05T03:13:14.971Z,96993.31
2023-01-05T03:15:42.353Z,96989.97
2023-01-05T03:18:12.007Z,96992.59
2023-01-05T03:20:42.861Z,96999.25
2023-01-05T03:23:28.371Z,97001.75
2023-01-05T03:26:13.480Z,97001.31
2023-01-05T03:29:03.496Z,97002.19
2023-01-05T03:31:54.576Z,96998.19
2023-01-05T03:34:47.475Z,97008.19
2023-01-05T03:37:15.293Z,97006.88
2023-01-05T03:39:42.419Z,97008.16
2023-01-05T03:42:09.583Z,97000.44
2023-01-05T03:44:36.610Z,96989.94
2023-01-05T03:47:03.954Z,96989.94
2023-01-05T03:49:30.654Z,96984.28
2023-01-05T03:51:57.641Z,96997.34
2023-01-05T03:54:24.918Z,96992.06
2023-01-05T03:56:51.558Z,96990.91
2023-01-05T03:59:18.114Z,96986.09
2023-01-05T04:01:44.707Z,96982.44
2023-01-05T04:04:14.042Z,96984.44
2023-01-05T04:06:40.572Z,96975.56
2023-01-05T04:09:09.089Z,96981.91
2023-01-05T04:11:38.301Z,96985.94
2023-01-05T04:14:07.093Z,96983.69
2023-01-05T04:16:35.052Z,96980.31
2023-01-05T04:19:10.167Z,96983.50
2023-01-05T04:21:37.077Z,96974.53
2023-01-05T04:24:04.892Z,96984.63
2023-01-05T04:26:34.643Z,96985.00
2023-01-05T04:29:01.319Z,96983.00
2023-01-05T04:31:28.270Z,96982.16
2023-01-05T04:33:56.335Z,96980.28
2023-01-05T04:36:24.442Z,96970.91
2023-01-05T04:38:53.541Z,96981.41
2023-01-05T04:41:21.216Z,96986.16
2023-01-05T04:43:50.690Z,96976.00
2023-01-05T04:46:17.628Z,96989.78
2023-01-05T04:48:47.500Z,96988.97
2023-01-05T04:51:15.238Z,96993.66
2023-01-05T04:53:42.012Z,96987.31
2023-01-05T04:56:13.408Z,96985.59
2023-01-05T04:58:42.985Z,96986.97
2023-01-05T05:01:09.565Z,96992.72
2023-01-05T05:03:37.904Z,96983.06
2023-01-05T05:06:08.121Z,96988.03
2023-01-05T05:08:34.624Z,96988.03
2023-01-05T05:11:03.083Z,96991.66
2023-01-05T05:13:32.614Z,96987.84
2023-01-05T05:16:00.792Z,96994.75
2023-01-05T05:18:28.940Z,96996.69
2023-01-05T05:20:55.770Z,97001.19
2023-01-05T05:23:26.859Z,97008.66
2023-01-05T05:25:53.472Z,97021.25
2023-01-05T05:28:23.241Z,97020.06
2023-01-05T05:30:49.927Z,97022.03
2023-01-05T05:33:16.409Z,97027.28
2023-01-05T05:35:42.981Z,97018.16
2023-01-05T05:38:09.529Z,97019.03
2023-01-05T05:40:36.019Z,97020.88
2023-01-05T05:43:02.448Z,97022.50
2023-01-05T05:45:28.947Z,97026.16
2023-01-05T05:47:55.403Z,97020.59
2023-01-05T05:50:21.907Z,97028.03
2023-01-05T05:52:48.336Z,97026.31
2023-01-05T05:55:14.863Z,97027.47
2023-01-05T05:57:41.338Z,97042.81
2023-01-05T06:00:08.100Z,97037.19
2023-01-05T06:02:40.505Z,97059.69
2023-01-05T06:05:07.202Z,97067.00
2023-01-05T06:07:33.694Z,97037.66
2023-01-05T06:10:00.316Z,97029.91
2023-01-05T06:12:27.181Z,97037.34
2023-01-05T06:14:53.665Z,97047.53
2023-01-05T06:17:20.126Z,97044.97
2023-01-05T06:19:46.624Z,97051.31
2023-01-05T06:22:13.103Z,97067.22
2023-01-05T06:24:39.665Z,97074.28
2023-01-05T06:27:06.169Z,97084.06
2023-01-05T06:29:33.023Z,97100.28
2023-01-05T06:32:00.692Z,97112.59
2023-01-05T06:34:27.143Z,97114.03
2023-01-05T06:36:56.735Z,97132.59
2023-01-05T06:39:27.092Z,97116.63
2023-01-05T06:41:53.537Z,97136.13
2023-01-05T06:44:20.094Z,97134.97
2023-01-05T06:46:46.564Z,97145.78
2023-01-05T06:49:14.734Z,97150.09
2023-01-05T06:51:41.199Z,97148.47
2023-01-05T06:54:07.757Z,97163.56
2023-01-05T06:56:34.266Z,97161.91
2023-01-05T06:59:00.730Z,97171.28
2023-01-05T07:01:27.284Z,97172.63
2023-01-05T07:03:53.854Z,97185.88
2023-01-05T07:06:20.477Z,97182.59
2023-01-05T07:08:47.044Z,97192.66
2023-01-05T07:11:14.016Z,97205.09
2023-01-05T07:13:40.539Z,97207.56
2023-01-05T07:16:07.227Z,97209.31
2023-01-05T07:18:33.720Z,97219.69
2023-01-05T07:21:00.755Z,97218.06
2023-01-05T07:23:27.255Z,97219.16
2023-01-05T07:25:53.761Z,97216.81
2023-01-05T07:28:20.371Z,97217.59
2023-01-05T07:30:52.893Z,97214.34
2023-01-05T07:33:19.572Z,97216.31
2023-01-05T07:35:46.076Z,97214.97
2023-01-05T07:38:12.555Z,97217.78
2023-01-05T07:40:39.092Z,97214.00
2023-01-05T07:43:05.605Z,97214.13
2023-01-05T07:45:32.168Z,97229.66
2023-01-05T07:48:00.047Z,97224.16
2023-01-05T07:50:26.563Z,97220.81
2023-01-05T07:52:53.221Z,97219.16
2023-01-05T07:55:19.753Z,97216.84
2023-01-05T07:57:47.053Z,97215.84
2023-01-05T08:00:15.058Z,97216.38
2023-01-05T08:02:42.210Z,97211.91
2023-01-05T08:05:09.005Z,97211.59
2023-01-05T08:07:35.659Z,97209.94
2023-01-05T08:10:21.388Z,97216.84
2023-01-05T08:13:06.344Z,97222.13
2023-01-05T08:15:32.866Z,97227.16
2023-01-05T08:17:59.398Z,97225.69
2023-01-05T08:20:25.884Z,97220.78
2023-01-05T08:22:52.737Z,97224.75
2023-01-05T08:25:19.570Z,97234.22
2023-01-05T08:27:46.264Z,97233.50
2023-01-05T08:30:13.000Z,97224.66
2023-01-05T08:32:39.663Z,97229.56
2023-01-05T08:35:06.423Z,97235.25
2023-01-05T08:37:32.908Z,97239.72
2023-01-05T08:39:59.365Z,97243.69
2023-01-05T08:42:25.858Z,97244.66
2023-01-05T08:44:52.357Z,97241.88
2023-01-05T08:47:19.495Z,97238.59
2023-01-05T08:49:47.225Z,97241.34
2023-01-05T08:52:13.761Z,97241.69
2023-01-05T08:54:40.344Z,97249.88
2023-01-05T08:57:07.805Z,97249.69
2023-01-05T08:59:34.349Z,97253.47
2023-01-05T09:02:01.000Z,97246.72
2023-01-05T09:04:27.689Z,97250.28
2023-01-05T09:06:54.507Z,97256.41
2023-01-05T09:09:24.317Z,97248.94
2023-01-05T09:11:50.836Z,97259.44
2023-01-05T09:14:17.534Z,97255.81
2023-01-05T09:19:30.711Z,97257.78
2023-01-05T09:21:57.239Z,97258.84
2023-01-05T09:24:23.783Z,97265.81
2023-01-05T09:26:50.716Z,97265.63
2023-01-05T09:29:17.282Z,97278.69
2023-01-05T09:31:43.931Z,97282.47
2023-01-05T09:34:10.592Z,97285.75
2023-01-05T09:36:37.401Z,97290.00
2023-01-05T09:39:06.095Z,97291.03
2023-01-05T09:41:35.352Z,97304.09
2023-01-05T09:44:05.014Z,97285.47
2023-01-05T09:46:39.063Z,97288.56
2023-01-05T09:49:07.055Z,97277.53
2023-01-05T09:51:33.699Z,97285.22
2023-01-05T09:54:00.511Z,97276.25
2023-01-05T09:59:31.770Z,97282.47
2023-01-05T10:01:59.287Z,97274.84
2023-01-05T10:04:30.575Z,97280.09
2023-01-05T10:06:59.053Z,97284.63
2023-01-05T10:09:28.596Z,97270.44
2023-01-05T10:12:13.695Z,97274.97
2023-01-05T10:14:41.185Z,97278.84
2023-01-05T10:17:40.000Z,97282.94
2023-01-05T10:19:59.524Z,97280.06
2023-01-05T10:22:38.916Z,97284.31
2023-01-05T10:25:11.202Z,97281.16
2023-01-05T10:27:37.706Z,97285.16
2023-01-05T10:30:10.368Z,97294.81
2023-01-05T10:33:14.895Z,97297.47
2023-01-05T10:36:00.221Z,97291.16
2023-01-05T10:38:33.886Z,97298.09
2023-01-05T10:41:06.737Z,97306.56
2023-01-05T10:43:33.423Z,97304.88
2023-01-05T10:46:31.139Z,97302.50
2023-01-05T10:48:47.506Z,97307.72
2023-01-05T10:51:14.030Z,97288.59
2023-01-05T10:53:41.546Z,97307.53
2023-01-05T10:56:14.992Z,97307.00
2023-01-05T10:58:44.797Z,97313.25
2023-01-05T11:01:25.127Z,97312.44
2023-01-05T11:06:39.643Z,97301.22
2023-01-05T11:09:07.263Z,97312.53
2023-01-05T11:11:33.805Z,97316.22
2023-01-05T11:14:00.263Z,97313.59
2023-01-05T11:16:27.212Z,97304.59
2023-01-05T11:19:03.609Z,97316.22
2023-01-05T11:21:36.177Z,97312.34
2023-01-05T11:24:02.927Z,97307.06
2023-01-05T11:26:41.172Z,97314.53
2023-01-05T11:29:14.266Z,97317.00
2023-01-05T11:31:50.708Z,97311.63
2023-01-05T11:34:20.146Z,97313.72
2023-01-05T11:37:04.076Z,97312.63
2023-01-05T11:39:35.551Z,97316.75
2023-01-05T11:42:06.886Z,97322.78
2023-01-05T11:44:33.342Z,97327.41
2023-01-05T11:46:59.841Z,97321.59
2023-01-05T11:49:26.319Z,97325.47
2023-01-05T11:51:52.817Z,97327.84
2023-01-05T11:54:26.551Z,97335.47
2023-01-05T11:56:56.769Z,97333.66
2023-01-05T11:59:30.521Z,97344.09
2023-01-05T12:02:27.913Z,97339.19
2023-01-05T12:05:25.835Z,97352.72
2023-01-05T12:08:07.291Z,97338.84
2023-01-05T12:10:47.396Z,97348.19
2023-01-05T12:13:35.595Z,97342.56
2023-01-05T12:16:10.732Z,97338.84
2023-01-05T12:18:54.332Z,97345.72
2023-01-05T12:21:23.973Z,97344.72
2023-01-05T12:23:53.517Z,97346.91
2023-01-05T12:26:51.105Z,97349.72
2023-01-05T12:35:58.117Z,97348.56
2023-01-05T12:38:27.673Z,97328.81
2023-01-05T12:41:09.481Z,97339.31
2023-01-05T12:44:19.894Z,97326.94
2023-01-05T12:47:20.748Z,97329.38
2023-01-05T12:49:51.935Z,97324.84
2023-01-05T12:52:23.595Z,97339.47
2023-01-05T12:54:54.621Z,97351.59
2023-01-05T12:57:37.259Z,97350.41
2023-01-05T13:00:13.743Z,97354.34
2023-01-05T13:02:42.746Z,97351.13
2023-01-05T13:05:14.306Z,97375.16
2023-01-05T13:07:59.793Z,97361.88
2023-01-05T13:10:30.971Z,97361.06
2023-01-05T13:13:01.994Z,97364.22
2023-01-05T13:15:34.311Z,97370.28
2023-01-05T13:18:03.903Z,97368.13
2023-01-05T13:20:46.420Z,97364.34
2023-01-05T13:23:25.536Z,97371.16
2023-01-05T13:25:56.512Z,97370.97
2023-01-05T13:28:24.546Z,97371.13
2023-01-05T13:31:06.169Z,97368.75
2023-01-05T13:33:48.705Z,97386.66
2023-01-05T13:36:53.675Z,97387.63
2023-01-05T13:39:27.691Z,97389.63
2023-01-05T13:42:26.287Z,97389.69
2023-01-05T13:45:09.029Z,97383.16
2023-01-05T13:48:09.895Z,97387.94
2023-01-05T13:50:57.914Z,97389.00
2023-01-05T13:53:25.632Z,97392.38
2023-01-05T13:55:56.153Z,97393.59
2023-01-05T13:58:51.752Z,97397.97
2023-01-05T14:01:19.922Z,97390.16
2023-01-05T14:03:51.907Z,97400.75
2023-01-05T14:06:21.751Z,97397.00
2023-01-05T14:11:30.013Z,97422.84
2023-01-05T14:13:59.660Z,97428.56
2023-01-05T14:16:36.276Z,97438.44
2023-01-05T14:19:23.243Z,97447.78
2023-01-05T14:21:50.686Z,97455.66
2023-01-05T14:24:26.426Z,97473.06
2023-01-05T14:27:04.092Z,97483.56
2023-01-05T14:29:46.239Z,97495.84
2023-01-05T14:32:32.642Z,97512.06
2023-01-05T14:35:09.539Z,97516.28
2023-01-05T14:37:38.657Z,97524.84
2023-01-05T14:40:31.747Z,97531.09
2023-01-05T14:42:58.806Z,97533.88
2023-01-05T14:45:32.611Z,97544.88
2023-01-05T14:48:03.050Z,97548.16
2023-01-05T14:50:36.493Z,97544.38
2023-01-05T14:53:13.732Z,97548.16
2023-01-05T14:55:53.354Z,97557.88
2023-01-05T14:58:47.708Z,97555.09
2023-01-05T15:01:17.538Z,97567.53
2023-01-05T15:03:55.924Z,97560.00
2023-01-05T15:06:47.023Z,97563.00
2023-01-05T15:09:22.682Z,97572.00
2023-01-05T15:12:10.875Z,97566.94
2023-01-05T15:15:04.708Z,97573.66
2023-01-05T15:18:01.528Z,97574.50
2023-01-05T15:20:49.705Z,97581.69
2023-01-05T15:23:28.349Z,97577.41
2023-01-05T15:26:22.114Z,97572.38
2023-01-05T15:29:07.574Z,97578.44
2023-01-05T15:31:57.696Z,97584.69
2023-01-05T15:34:30.573Z,97575.00
2023-01-05T15:37:13.263Z,97581.09
2023-01-05T15:39:53.488Z,97591.59
2023-01-05T15:42:28.490Z,97602.09
2023-01-05T15:44:55.578Z,97596.53
2023-01-05T15:47:24.671Z,97609.31
2023-01-05T15:49:51.439Z,97624.56
2023-01-05T15:52:39.318Z,97641.09
2023-01-05T15:55:16.381Z,97652.91
2023-01-05T15:57:43.612Z,97677.03
2023-01-05T16:00:24.485Z,97691.25
2023-01-05T16:02:51.268Z,97710.78
2023-01-05T16:05:18.868Z,97724.63
2023-01-05T16:07:57.709Z,97734.63
2023-01-05T16:10:36.250Z,97758.81
2023-01-05T16:13:20.477Z,97784.53
2023-01-05T16:15:49.767Z,97798.66
2023-01-05T16:18:27.439Z,97827.34
2023-01-05T16:20:54.575Z,97847.19
2023-01-05T16:23:27.388Z,97865.28
2023-01-05T16:25:56.495Z,97886.16
2023-01-05T16:28:23.626Z,97904.00
2023-01-05T16:30:51.144Z,97909.72
2023-01-05T16:33:35.000Z,97930.97
2023-01-05T16:36:12.258Z,97938.84
2023-01-05T16:38:39.456Z,97953.47
2023-01-05T16:41:26.256Z,97965.03
2023-01-05T16:43:55.192Z,97976.66
2023-01-05T16:46:26.305Z,98000.25
2023-01-05T16:48:54.576Z,98009.56
2023-01-05T16:51:25.702Z,98015.59
2023-01-05T16:53:54.482Z,98033.06
2023-01-05T16:56:33.281Z,98049.16
2023-01-05T16:59:00.511Z,98059.28
2023-01-05T17:01:47.405Z,98086.94
2023-01-05T17:04:15.616Z,98095.47
2023-01-05T17:06:47.660Z,98108.56
2023-01-05T17:09:25.736Z,98131.19
2023-01-05T17:11:52.436Z,98151.31
2023-01-05T17:14:19.430Z,98167.13
2023-01-05T17:16:46.453Z,98178.28
2023-01-05T17:19:15.394Z,98197.22
2023-01-05T17:22:04.727Z,98202.03
2023-01-05T17:24:31.483Z,98207.97
2023-01-05T17:26:58.182Z,98239.66
2023-01-05T17:29:26.404Z,98249.63
2023-01-05T17:31:53.289Z,98258.69
2023-01-05T17:34:19.951Z,98270.47
2023-01-05T17:36:47.291Z,98299.13
2023-01-05T17:39:17.910Z,98303.75
2023-01-05T17:41:44.827Z,98308.31
2023-01-05T17:44:11.486Z,98337.78
2023-01-05T17:46:40.755Z,98337.13
2023-01-05T17:49:12.575Z,98355.75
2023-01-05T17:51:39.251Z,98374.81
2023-01-05T17:54:06.021Z,98382.09
2023-01-05T17:58:59.198Z,98410.94
2023-01-05T18:01:26.032Z,98414.81
2023-01-05T18:03:52.996Z,98423.06
2023-01-05T18:06:19.682Z,98435.34
2023-01-05T18:08:46.637Z,98446.41
2023-01-05T18:11:17.615Z,98465.03
2023-01-05T18:13:44.768Z,98473.72
2023-01-05T18:16:11.860Z,98486.56
2023-01-05T18:18:39.690Z,98492.34
2023-01-05T18:21:08.366Z,98497.03
2023-01-05T18:23:35.850Z,98520.09
2023-01-05T18:26:08.320Z,98529.88
2023-01-05T18:28:36.377Z,98551.59
2023-01-05T18:31:15.371Z,98569.94
2023-01-05T18:33:44.508Z,98572.84
2023-01-05T18:36:15.965Z,98581.00
2023-01-05T18:39:19.817Z,98588.59
2023-01-05T18:42:35.581Z,98593.66
2023-01-05T18:45:39.172Z,98613.28
2023-01-05T18:48:11.799Z,98617.47
2023-01-05T18:50:43.076Z,98617.16
2023-01-05T18:57:25.416Z,98624.06
2023-01-05T19:06:45.971Z,98647.91
2023-01-05T19:09:57.166Z,98653.72
2023-01-05T19:13:07.121Z,98643.25
2023-01-05T19:16:32.795Z,98645.81
2023-01-05T19:23:03.353Z,98654.00
2023-01-05T19:26:13.964Z,98668.66
2023-01-05T19:29:25.467Z,98686.88
2023-01-05T19:32:09.309Z,98687.50
2023-01-05T19:35:19.007Z,98694.59
2023-01-05T19:38:36.377Z,98704.66
2023-01-05T19:41:13.633Z,98708.84
2023-01-05T19:44:22.443Z,98717.31
2023-01-05T19:47:11.677Z,98716.88
2023-01-05T19:49:38.750Z,98709.81
2023-01-05T19:52:48.266Z,98710.00
2023-01-05T19:56:03.105Z,98703.19
2023-01-05T19:59:23.035Z,98699.31
2023-01-05T20:02:32.786Z,98690.94
2023-01-05T20:05:47.110Z,98684.38
2023-01-05T20:08:23.378Z,98672.69
2023-01-05T20:11:40.833Z,98681.16
2023-01-05T20:14:59.018Z,98683.03
2023-01-05T20:18:12.972Z,98668.09
2023-01-05T20:21:02.194Z,98664.38
2023-01-05T20:24:12.128Z,98650.41
2023-01-05T20:27:01.725Z,98632.16
2023-01-05T20:32:47.662Z,98601.22
2023-01-05T20:36:03.072Z,98590.56
2023-01-05T20:39:25.252Z,98576.03
2023-01-05T20:42:42.643Z,98559.44
2023-01-05T20:45:39.606Z,98557.31
2023-01-05T20:48:43.888Z,98531.88
2023-01-05T20:51:41.172Z,98515.56
2023-01-05T20:54:48.653Z,98494.84
2023-01-05T20:58:01.939Z,98480.78
2023-01-05T21:01:25.512Z,98474.41
2023-01-05T21:04:38.257Z,98451.66
2023-01-05T21:07:15.044Z,98459.38
2023-01-05T21:09:42.629Z,98451.38
2023-01-05T21:12:11.877Z,98447.38
2023-01-05T21:14:38.678Z,98449.03
2023-01-05T21:17:05.378Z,98449.84
2023-01-05T21:19:54.277Z,98435.63
2023-01-05T21:22:39.023Z,98436.34
2023-01-05T21:26:06.217Z,98439.91
2023-01-05T21:28:46.239Z,98434.66
2023-01-05T21:31:17.324Z,98423.91
2023-01-05T21:33:54.416Z,98397.13
2023-01-05T21:37:05.607Z,98359.34
2023-01-05T21:40:22.750Z,98353.00
2023-01-05T21:43:17.911Z,98346.94
2023-01-05T21:46:31.548Z,98342.25
2023-01-05T21:48:58.340Z,98324.88
2023-01-05T21:51:43.505Z,98321.72
2023-01-05T21:54:28.846Z,98320.72
2023-01-05T21:56:55.501Z,98311.75
2023-01-05T21:59:22.161Z,98317.97
2023-01-05T22:01:48.810Z,98327.63
2023-01-05T22:04:15.516Z,98329.56
2023-01-05T22:06:42.239Z,98334.91
2023-01-05T22:09:08.937Z,98310.38
2023-01-05T22:11:35.719Z,98318.81
2023-01-05T22:14:02.473Z,98315.75
2023-01-05T22:16:29.230Z,98307.63
2023-01-05T22:18:55.945Z,98294.66
2023-01-05T22:21:22.795Z,98270.16
2023-01-05T22:23:49.579Z,98247.16
2023-01-05T22:26:46.322Z,98253.09
2023-01-05T22:29:13.194Z,98257.41
2023-01-05T22:32:09.197Z,98270.28
2023-01-05T22:35:13.810Z,98266.56
2023-01-05T22:38:26.536Z,98254.94
2023-01-05T22:41:36.943Z,98247.91
2023-01-05T22:44:13.786Z,98235.34
2023-01-05T22:47:08.323Z,98250.81
2023-01-05T22:50:20.214Z,98254.94
2023-01-05T22:52:56.713Z,98246.38
2023-01-05T22:55:23.443Z,98243.59
2023-01-05T22:58:32.905Z,98251.31
2023-01-05T23:01:52.699Z,98253.88
2023-01-05T23:05:08.880Z,98270.81
2023-01-05T23:08:21.917Z,98271.75
2023-01-05T23:11:33.261Z,98287.91
2023-01-05T23:14:22.741Z,98285.28
2023-01-05T23:17:12.309Z,98296.63
2023-01-05T23:19:39.293Z,98296.75
2023-01-05T23:22:46.761Z,98297.16
2023-01-05T23:25:51.642Z,98289.00
2023-01-05T23:29:06.070Z,98289.00
2023-01-05T23:32:08.802Z,98285.84
2023-01-05T23:34:35.490Z,98281.03
2023-01-05T23:37:43.584Z,98267.59
2023-01-05T23:40:55.776Z,98280.50
2023-01-05T23:44:01.511Z,98288.72
2023-01-05T23:47:08.641Z,98302.81
2023-01-05T23:50:13.074Z,98295.75
2023-01-05T23:52:49.939Z,98287.94
2023-01-05T23:55:16.672Z,98262.56
2023-01-05T23:58:24.155Z,98257.44
